createdAt,value
2018-04-08T00:02:24.669Z,11.40
2018-04-08T00:04:51.788Z,10.07
2018-04-08T00:07:21.588Z,12.53
2018-04-08T00:09:48.212Z,10.23
2018-04-08T00:12:14.903Z,10.43
2018-04-08T00:14:41.613Z,10.27
2018-04-08T00:17:11.876Z,12.70
2018-04-08T00:19:38.529Z,9.83
2018-04-08T00:22:05.204Z,11.40
2018-04-08T00:24:31.868Z,12.17
2018-04-08T00:27:02.034Z,11.90
2018-04-08T00:29:29.483Z,9.43
2018-04-08T00:31:56.069Z,11.67
2018-04-08T00:34:22.769Z,10.97
2018-04-08T00:36:53.190Z,9.87
2018-04-08T00:39:19.945Z,11.33
2018-04-08T00:41:46.569Z,9.43
2018-04-08T00:44:13.184Z,10.73
2018-04-08T00:46:41.086Z,9.87
2018-04-08T00:49:07.829Z,8.93
2018-04-08T00:51:34.385Z,13.47
2018-04-08T00:54:13.077Z,11.50
2018-04-08T00:56:43.594Z,12.03
2018-04-08T00:59:10.054Z,10.27
2018-04-08T01:01:36.582Z,10.17
2018-04-08T01:04:03.304Z,10.10
2018-04-08T01:06:33.318Z,10.20
2018-04-08T01:08:59.829Z,12.07
2018-04-08T01:11:26.286Z,11.57
2018-04-08T01:13:52.950Z,14.53
2018-04-08T01:16:20.814Z,13.13
2018-04-08T01:18:47.408Z,11.43
2018-04-08T01:21:14.095Z,14.73
2018-04-08T01:23:40.868Z,13.33
2018-04-08T01:26:07.777Z,14.47
2018-04-08T01:28:34.481Z,12.73
2018-04-08T01:31:01.233Z,14.43
2018-04-08T01:33:27.942Z,14.07
2018-04-08T01:35:55.893Z,13.20
2018-04-08T01:38:22.570Z,11.37
2018-04-08T01:40:49.321Z,13.47
2018-04-08T01:43:16.030Z,13.63
2018-04-08T01:45:50.057Z,14.30
2018-04-08T01:48:16.786Z,13.87
2018-04-08T01:50:43.465Z,11.90
2018-04-08T01:53:10.173Z,14.37
2018-04-08T01:55:40.377Z,13.83
2018-04-08T01:58:07.050Z,11.37
2018-04-08T02:00:33.902Z,14.57
2018-04-08T02:03:00.929Z,12.13
2018-04-08T02:05:27.633Z,10.67
2018-04-08T02:07:54.301Z,13.70
2018-04-08T02:10:20.976Z,13.77
2018-04-08T02:12:47.558Z,15.53
2018-04-08T02:15:14.346Z,16.20
2018-04-08T02:17:46.652Z,12.00
2018-04-08T02:20:13.723Z,12.33
2018-04-08T02:22:40.480Z,11.70
2018-04-08T02:25:07.260Z,15.33
2018-04-08T02:27:35.134Z,11.23
2018-04-08T02:30:01.986Z,11.50
2018-04-08T02:32:28.801Z,9.83
2018-04-08T02:34:55.502Z,13.10
2018-04-08T02:37:25.669Z,12.57
2018-04-08T02:39:52.489Z,13.53
2018-04-08T02:42:19.200Z,12.50
2018-04-08T02:44:45.908Z,16.60
2018-04-08T02:47:22.631Z,10.87
2018-04-08T02:49:49.288Z,12.53
2018-04-08T02:52:15.961Z,9.83
2018-04-08T02:54:42.574Z,11.20
2018-04-08T02:57:12.524Z,11.27
2018-04-08T02:59:39.091Z,13.10
2018-04-08T03:02:05.728Z,11.43
2018-04-08T03:04:32.561Z,9.83
2018-04-08T03:06:59.206Z,12.47
2018-04-08T03:09:25.963Z,13.97
2018-04-08T03:11:52.560Z,10.10
2018-04-08T03:14:19.240Z,11.13
2018-04-08T03:16:46.299Z,10.10
2018-04-08T03:19:13.068Z,13.67
2018-04-08T03:21:39.836Z,10.13
2018-04-08T03:24:07.368Z,14.27
2018-04-08T03:26:39.206Z,10.93
2018-04-08T03:29:06.217Z,13.00
2018-04-08T03:31:32.922Z,11.70
2018-04-08T03:33:59.675Z,11.30
2018-04-08T03:36:27.378Z,11.00
2018-04-08T03:38:54.140Z,11.53
2018-04-08T03:41:20.846Z,12.20
2018-04-08T03:43:47.559Z,15.50
2018-04-08T03:46:18.236Z,10.23
2018-04-08T03:48:44.985Z,12.53
2018-04-08T03:51:11.829Z,12.27
2018-04-08T03:53:38.438Z,13.93
2018-04-08T03:56:18.105Z,10.77
2018-04-08T03:58:44.868Z,12.87
2018-04-08T04:01:11.572Z,14.67
2018-04-08T04:03:38.333Z,14.20
2018-04-08T04:06:09.014Z,13.40
2018-04-08T04:08:35.735Z,13.37
2018-04-08T04:11:02.393Z,12.87
2018-04-08T04:13:29.191Z,15.57
2018-04-08T04:16:01.815Z,16.87
2018-04-08T04:21:36.931Z,13.65
2018-04-08T04:24:15.464Z,12.20
2018-04-08T04:26:43.353Z,14.77
2018-04-08T04:29:10.101Z,13.50
2018-04-08T04:31:36.860Z,13.53
2018-04-08T04:34:03.540Z,10.60
2018-04-08T04:36:36.312Z,10.07
2018-04-08T04:39:02.814Z,11.70
2018-04-08T04:41:29.508Z,17.87
2018-04-08T04:43:56.245Z,13.87
2018-04-08T04:46:23.902Z,15.43
2018-04-08T04:48:50.602Z,12.67
2018-04-08T04:51:17.475Z,13.07
2018-04-08T04:53:44.109Z,14.03
2018-04-08T04:56:28.002Z,11.60
2018-04-08T04:58:54.686Z,11.60
2018-04-08T05:01:21.325Z,10.83
2018-04-08T05:03:48.100Z,10.13
2018-04-08T05:06:18.601Z,10.87
2018-04-08T05:08:45.255Z,11.73
2018-04-08T05:11:11.921Z,11.40
2018-04-08T05:13:38.610Z,12.50
2018-04-08T05:16:06.294Z,9.00
2018-04-08T05:18:32.909Z,9.20
2018-04-08T05:20:59.610Z,13.03
2018-04-08T05:23:26.226Z,8.33
2018-04-08T05:25:56.669Z,11.80
2018-04-08T05:28:23.401Z,9.70
2018-04-08T05:30:50.070Z,10.17
2018-04-08T05:33:16.781Z,10.53
2018-04-08T05:35:43.470Z,10.10
2018-04-08T05:38:10.117Z,10.57
2018-04-08T05:40:36.683Z,10.70
2018-04-08T05:43:03.437Z,11.20
2018-04-08T05:45:31.256Z,12.33
2018-04-08T05:47:57.957Z,11.87
2018-04-08T05:50:24.604Z,8.10
2018-04-08T05:52:51.412Z,8.53
2018-04-08T05:55:18.278Z,9.00
2018-04-08T05:57:44.953Z,11.10
2018-04-08T06:00:11.600Z,7.30
2018-04-08T06:02:38.326Z,10.90
2018-04-08T06:05:06.065Z,10.23
2018-04-08T06:07:32.820Z,10.30
2018-04-08T06:09:59.536Z,9.27
2018-04-08T06:12:26.121Z,8.83
2018-04-08T06:15:00.263Z,9.53
2018-04-08T06:17:26.981Z,12.90
2018-04-08T06:19:53.694Z,8.23
2018-04-08T06:22:20.358Z,10.37
2018-04-08T06:24:47.302Z,10.87
2018-04-08T06:27:13.901Z,7.80
2018-04-08T06:29:40.530Z,9.73
2018-04-08T06:32:07.284Z,11.13
2018-04-08T06:34:34.680Z,9.37
2018-04-08T06:37:02.490Z,9.90
2018-04-08T06:39:29.683Z,10.00
2018-04-08T06:41:56.936Z,12.73
2018-04-08T06:44:23.709Z,7.90
2018-04-08T06:46:51.573Z,9.67
2018-04-08T06:49:18.690Z,11.13
2018-04-08T06:51:45.321Z,10.30
2018-04-08T06:54:12.015Z,10.13
2018-04-08T06:56:38.862Z,8.60
2018-04-08T06:59:05.586Z,7.63
2018-04-08T07:01:32.365Z,10.97
2018-04-08T07:03:58.978Z,8.47
2018-04-08T07:06:30.438Z,10.23
2018-04-08T07:08:57.074Z,9.00
2018-04-08T07:11:23.661Z,8.40
2018-04-08T07:13:50.306Z,9.73
2018-04-08T07:16:17.775Z,9.83
2018-04-08T07:18:44.571Z,10.20
2018-04-08T07:21:11.242Z,10.00
2018-04-08T07:23:37.978Z,8.77
2018-04-08T07:26:05.384Z,10.77
2018-04-08T07:28:32.155Z,12.97
2018-04-08T07:30:58.894Z,7.93
2018-04-08T07:33:25.622Z,10.67
2018-04-08T07:35:55.837Z,14.13
2018-04-08T07:38:22.580Z,10.10
2018-04-08T07:40:49.282Z,9.97
2018-04-08T07:43:15.896Z,15.03
2018-04-08T07:45:48.730Z,20.73
2018-04-08T07:48:15.940Z,10.30
2018-04-08T07:50:43.037Z,9.77
2018-04-08T07:53:09.823Z,11.37
2018-04-08T07:55:43.202Z,9.60
2018-04-08T07:58:09.774Z,10.13
2018-04-08T08:00:36.446Z,7.30
2018-04-08T08:03:03.048Z,10.73
2018-04-08T08:05:29.728Z,7.47
2018-04-08T08:07:56.403Z,8.30
2018-04-08T08:10:23.117Z,8.53
2018-04-08T08:12:49.825Z,6.50
2018-04-08T08:15:17.728Z,8.20
2018-04-08T08:17:44.377Z,7.97
2018-04-08T08:20:11.070Z,8.37
2018-04-08T08:22:37.821Z,11.03
2018-04-08T08:25:04.979Z,10.20
2018-04-08T08:27:31.801Z,8.30
2018-04-08T08:29:58.527Z,10.27
2018-04-08T08:32:25.185Z,8.00
2018-04-08T08:35:02.129Z,12.47
2018-04-08T08:37:28.776Z,7.03
2018-04-08T08:39:55.431Z,7.87
2018-04-08T08:42:22.178Z,11.00
2018-04-08T08:44:56.414Z,7.30
2018-04-08T08:47:23.130Z,7.03
2018-04-08T08:49:49.837Z,9.40
2018-04-08T08:52:16.623Z,7.70
2018-04-08T08:54:43.448Z,7.00
2018-04-08T08:57:10.088Z,8.83
2018-04-08T08:59:36.845Z,10.73
2018-04-08T09:02:03.454Z,6.90
2018-04-08T09:04:30.214Z,9.23
2018-04-08T09:06:56.971Z,9.33
2018-04-08T09:09:23.594Z,7.07
2018-04-08T09:11:50.248Z,10.43
2018-04-08T09:14:17.009Z,6.53
2018-04-08T09:16:43.797Z,7.40
2018-04-08T09:19:16.537Z,5.33
2018-04-08T09:24:39.742Z,7.75
2018-04-08T09:27:06.573Z,7.47
2018-04-08T09:29:33.186Z,10.07
2018-04-08T09:31:59.874Z,10.97
2018-04-08T09:34:27.637Z,10.43
2018-04-08T09:36:54.566Z,10.10
2018-04-08T09:39:21.241Z,8.37
2018-04-08T09:41:47.953Z,9.33
2018-04-08T09:44:14.729Z,9.33
2018-04-08T09:46:41.399Z,7.43
2018-04-08T09:49:07.974Z,7.50
2018-04-08T09:51:34.909Z,7.90
2018-04-08T09:54:01.648Z,9.90
2018-04-08T09:56:31.937Z,7.40
2018-04-08T09:58:58.685Z,6.03
2018-04-08T10:01:31.342Z,8.43
2018-04-08T10:03:58.018Z,12.07
2018-04-08T10:06:25.752Z,6.93
2018-04-08T10:08:52.390Z,7.83
2018-04-08T10:11:19.149Z,6.47
2018-04-08T10:13:45.871Z,7.90
2018-04-08T10:16:18.203Z,9.07
2018-04-08T10:18:44.931Z,9.00
2018-04-08T10:21:11.645Z,8.40
2018-04-08T10:23:38.262Z,7.93
2018-04-08T10:26:05.042Z,6.37
2018-04-08T10:28:32.891Z,6.30
2018-04-08T10:31:03.886Z,6.47
2018-04-08T10:33:30.651Z,9.37
2018-04-08T10:36:01.041Z,7.70
2018-04-08T10:38:27.758Z,5.93
2018-04-08T10:40:54.498Z,8.77
2018-04-08T10:43:21.247Z,7.67
2018-04-08T10:45:49.510Z,9.40
2018-04-08T10:48:16.280Z,10.03
2018-04-08T10:50:43.046Z,7.10
2018-04-08T10:53:09.787Z,7.50
2018-04-08T10:55:37.655Z,5.37
2018-04-08T10:58:04.382Z,10.20
2018-04-08T11:00:31.093Z,7.60
2018-04-08T11:02:57.794Z,8.33
2018-04-08T11:05:27.790Z,9.83
2018-04-08T11:07:54.465Z,6.83
2018-04-08T11:10:21.181Z,5.37
2018-04-08T11:12:47.909Z,5.93
2018-04-08T11:15:15.699Z,6.00
2018-04-08T11:17:42.362Z,8.10
2018-04-08T11:20:09.043Z,9.83
2018-04-08T11:22:35.708Z,6.10
2018-04-08T11:25:08.098Z,5.40
2018-04-08T11:27:34.783Z,10.60
2018-04-08T11:30:01.461Z,8.60
2018-04-08T11:32:28.497Z,7.37
2018-04-08T11:34:59.162Z,8.80
2018-04-08T11:37:30.207Z,9.87
2018-04-08T11:39:56.875Z,10.77
2018-04-08T11:42:23.560Z,16.00
2018-04-08T11:44:51.303Z,11.33
2018-04-08T11:47:17.989Z,10.83
2018-04-08T11:49:44.691Z,9.80
2018-04-08T11:52:11.370Z,10.00
2018-04-08T11:54:38.325Z,10.07
2018-04-08T11:57:05.021Z,10.30
2018-04-08T11:59:31.728Z,9.77
2018-04-08T12:01:58.573Z,8.93
2018-04-08T12:04:28.777Z,18.80
2018-04-08T12:06:55.446Z,9.37
2018-04-08T12:09:22.112Z,13.13
2018-04-08T12:11:49.194Z,9.33
2018-04-08T12:14:16.933Z,8.93
2018-04-08T12:16:43.625Z,7.57
2018-04-08T12:19:10.296Z,11.77
2018-04-08T12:21:37.001Z,13.77
2018-04-08T12:24:04.002Z,9.37
2018-04-08T12:26:30.633Z,13.30
2018-04-08T12:28:57.329Z,11.03
2018-04-08T12:31:24.198Z,13.13
2018-04-08T12:33:50.895Z,8.73
2018-04-08T12:36:17.503Z,11.03
2018-04-08T12:38:45.001Z,12.63
2018-04-08T12:41:12.017Z,14.43
2018-04-08T12:43:38.688Z,10.13
2018-04-08T12:46:06.389Z,9.47
2018-04-08T12:48:33.116Z,11.07
2018-04-08T12:51:00.424Z,9.70
2018-04-08T12:53:27.122Z,9.73
2018-04-08T12:55:57.345Z,6.40
2018-04-08T12:58:24.077Z,7.47
2018-04-08T13:00:50.857Z,6.97
2018-04-08T13:03:17.579Z,7.90
2018-04-08T13:05:44.361Z,10.30
2018-04-08T13:08:10.976Z,7.13
2018-04-08T13:10:37.708Z,10.83
2018-04-08T13:13:04.530Z,10.03
2018-04-08T13:15:31.520Z,7.47
2018-04-08T13:17:58.170Z,6.83
2018-04-08T13:20:24.810Z,7.47
2018-04-08T13:22:51.592Z,8.33
2018-04-08T13:25:19.713Z,5.20
2018-04-08T13:27:46.366Z,7.40
2018-04-08T13:30:13.027Z,8.43
2018-04-08T13:32:39.682Z,5.33
2018-04-08T13:35:09.411Z,7.70
2018-04-08T13:37:36.176Z,6.23
2018-04-08T13:40:02.879Z,5.47
2018-04-08T13:42:29.466Z,5.73
2018-04-08T13:44:56.225Z,8.33
2018-04-08T13:47:22.864Z,9.37
2018-04-08T13:49:49.582Z,7.60
2018-04-08T13:52:16.241Z,9.87
2018-04-08T13:54:43.277Z,9.90
2018-04-08T13:57:10.019Z,10.37
2018-04-08T13:59:37.602Z,8.27
2018-04-08T14:02:04.498Z,12.17
2018-04-08T14:04:32.250Z,8.43
2018-04-08T14:06:58.942Z,9.50
2018-04-08T14:09:25.703Z,10.30
2018-04-08T14:11:52.621Z,7.53
2018-04-08T14:14:24.739Z,10.10
2018-04-08T14:16:51.354Z,11.33
2018-04-08T14:19:18.050Z,10.60
2018-04-08T14:21:44.818Z,9.77
2018-04-08T14:24:14.850Z,9.47
2018-04-08T14:26:41.475Z,9.13
2018-04-08T14:29:08.113Z,9.20
2018-04-08T14:31:34.899Z,10.60
2018-04-08T14:34:02.817Z,10.80
2018-04-08T14:36:29.562Z,11.47
2018-04-08T14:38:56.421Z,8.93
2018-04-08T14:41:22.970Z,15.50
2018-04-08T14:43:53.152Z,11.77
2018-04-08T14:46:19.805Z,13.13
2018-04-08T14:48:46.561Z,11.33
2018-04-08T14:51:14.629Z,11.67
2018-04-08T14:53:41.452Z,10.93
2018-04-08T14:56:09.242Z,13.00
2018-04-08T14:58:35.901Z,10.90
2018-04-08T15:01:02.620Z,11.40
2018-04-08T15:03:29.355Z,9.40
2018-04-08T15:05:56.175Z,9.93
2018-04-08T15:08:22.882Z,9.10
2018-04-08T15:10:49.667Z,12.67
2018-04-08T15:13:16.432Z,8.93
2018-04-08T15:15:46.835Z,11.10
2018-04-08T15:18:14.061Z,10.87
2018-04-08T15:20:40.753Z,8.10
2018-04-08T15:23:07.541Z,11.00
2018-04-08T15:25:37.935Z,11.90
2018-04-08T15:28:04.632Z,12.70
2018-04-08T15:30:31.398Z,8.30
2018-04-08T15:32:58.213Z,11.53
2018-04-08T15:35:25.900Z,12.40
2018-04-08T15:37:52.491Z,9.83
2018-04-08T15:40:19.083Z,12.13
2018-04-08T15:42:45.854Z,12.97
2018-04-08T15:45:15.685Z,10.50
2018-04-08T15:47:42.609Z,9.00
2018-04-08T15:50:09.404Z,10.80
2018-04-08T15:52:36.046Z,9.30
2018-04-08T15:55:02.766Z,7.87
2018-04-08T15:57:29.410Z,10.30
2018-04-08T15:59:56.169Z,9.57
2018-04-08T16:02:22.833Z,11.33
2018-04-08T16:04:49.614Z,9.33
2018-04-08T16:07:16.367Z,12.03
2018-04-08T16:09:43.131Z,12.10
2018-04-08T16:12:09.809Z,11.07
2018-04-08T16:14:39.957Z,9.80
2018-04-08T16:17:06.596Z,8.60
2018-04-08T16:19:33.226Z,11.67
2018-04-08T16:21:59.918Z,10.93
2018-04-08T16:24:30.258Z,12.47
2018-04-08T16:26:56.898Z,10.40
2018-04-08T16:29:23.565Z,14.20
2018-04-08T16:31:50.371Z,13.30
2018-04-08T16:34:23.651Z,13.13
2018-04-08T16:36:50.374Z,17.80
2018-04-08T16:39:17.087Z,13.90
2018-04-08T16:41:43.681Z,13.67
2018-04-08T16:44:11.470Z,17.17
2018-04-08T16:46:38.143Z,14.63
2018-04-08T16:49:04.853Z,15.07
2018-04-08T16:51:31.570Z,19.30
2018-04-08T16:54:01.356Z,13.53
2018-04-08T16:56:28.056Z,15.07
2018-04-08T16:58:54.969Z,17.87
2018-04-08T17:01:21.640Z,14.70
2018-04-08T17:03:48.430Z,14.27
2018-04-08T17:06:15.147Z,19.73
2018-04-08T17:08:41.794Z,16.17
2018-04-08T17:11:08.375Z,14.57
2018-04-08T17:13:38.727Z,15.77
2018-04-08T17:16:05.630Z,16.90
2018-04-08T17:18:32.404Z,20.23
2018-04-08T17:20:59.153Z,14.60
2018-04-08T17:23:26.118Z,16.00
2018-04-08T17:25:52.962Z,15.27
2018-04-08T17:28:19.554Z,15.03
2018-04-08T17:30:46.239Z,16.10
2018-04-08T17:33:13.233Z,15.23
2018-04-08T17:35:39.919Z,16.73
2018-04-08T17:38:06.634Z,16.53
2018-04-08T17:40:33.278Z,15.87
2018-04-08T17:42:59.959Z,15.37
2018-04-08T17:45:26.749Z,16.20
2018-04-08T17:47:53.494Z,16.80
2018-04-08T17:50:20.194Z,16.80
2018-04-08T17:52:46.878Z,17.63
2018-04-08T17:55:18.210Z,18.60
2018-04-08T17:57:44.861Z,18.90
2018-04-08T18:00:12.229Z,22.47
2018-04-08T18:02:38.909Z,20.23
2018-04-08T18:05:09.133Z,17.90
2018-04-08T18:07:35.906Z,16.67
2018-04-08T18:10:02.699Z,17.17
2018-04-08T18:12:29.898Z,19.37
2018-04-08T18:14:56.780Z,20.97
2018-04-08T18:17:23.477Z,19.67
2018-04-08T18:19:50.230Z,25.67
2018-04-08T18:22:16.961Z,23.57
2018-04-08T18:24:43.624Z,25.70
2018-04-08T18:27:10.261Z,19.07
2018-04-08T18:29:37.145Z,17.60
2018-04-08T18:32:04.825Z,15.73
2018-04-08T18:34:31.655Z,16.37
2018-04-08T18:36:58.384Z,14.03
2018-04-08T18:39:25.084Z,13.47
2018-04-08T18:41:51.745Z,11.77
2018-04-08T18:44:19.425Z,14.60
2018-04-08T18:46:46.101Z,15.33
2018-04-08T18:49:12.879Z,13.80
2018-04-08T18:51:39.531Z,14.70
2018-04-08T18:54:07.328Z,15.20
2018-04-08T18:56:34.034Z,16.87
2018-04-08T18:59:01.890Z,13.97
2018-04-08T19:01:28.808Z,14.77
2018-04-08T19:04:00.860Z,14.60
2018-04-08T19:06:27.510Z,15.77
2018-04-08T19:08:54.165Z,19.30
2018-04-08T19:11:21.391Z,14.80
2018-04-08T19:13:51.489Z,18.47
2018-04-08T19:16:18.217Z,14.97
2018-04-08T19:18:45.534Z,13.97
2018-04-08T19:21:12.382Z,15.37
2018-04-08T19:23:39.557Z,15.33
2018-04-08T19:26:06.234Z,16.23
2018-04-08T19:28:32.887Z,20.70
2018-04-08T19:30:59.661Z,19.17
2018-04-08T19:33:26.389Z,18.70
2018-04-08T19:35:53.097Z,14.20
2018-04-08T19:38:19.771Z,16.67
2018-04-08T19:40:46.509Z,14.90
2018-04-08T19:43:14.402Z,15.23
2018-04-08T19:45:41.117Z,13.40
2018-04-08T19:48:07.805Z,14.80
2018-04-08T19:50:34.512Z,15.77
2018-04-08T19:53:02.865Z,13.20
2018-04-08T19:55:29.558Z,14.90
2018-04-08T19:57:56.315Z,18.97
2018-04-08T20:00:23.120Z,16.07
2018-04-08T20:02:49.715Z,19.47
2018-04-08T20:05:16.469Z,19.77
2018-04-08T20:07:43.091Z,20.83
2018-04-08T20:10:09.721Z,15.87
2018-04-08T20:12:36.385Z,25.37
2018-04-08T20:15:03.061Z,19.40
2018-04-08T20:17:29.922Z,19.77
2018-04-08T20:25:26.358Z,17.83
2018-04-08T20:27:52.957Z,16.97
2018-04-08T20:30:20.415Z,20.07
2018-04-08T20:32:47.262Z,18.10
2018-04-08T20:35:15.167Z,19.57
2018-04-08T20:37:41.881Z,16.57
2018-04-08T20:40:08.698Z,18.43
2018-04-08T20:42:35.403Z,20.37
2018-04-08T20:45:01.986Z,20.93
2018-04-08T20:47:28.636Z,21.33
2018-04-08T20:49:55.389Z,20.50
2018-04-08T20:52:22.082Z,19.67
2018-04-08T20:54:54.988Z,21.50
2018-04-08T20:57:21.533Z,20.80
2018-04-08T20:59:49.336Z,17.03
2018-04-08T21:02:15.913Z,19.17
2018-04-08T21:04:48.545Z,17.97
2018-04-08T21:07:15.352Z,15.20
2018-04-08T21:09:42.057Z,14.80
2018-04-08T21:12:08.777Z,14.77
2018-04-08T21:14:40.100Z,14.00
2018-04-08T21:17:06.865Z,12.53
2018-04-08T21:19:33.594Z,16.97
2018-04-08T21:22:00.500Z,12.27
2018-04-08T21:24:27.775Z,11.50
2018-04-08T21:26:54.529Z,12.13
2018-04-08T21:29:21.178Z,11.03
2018-04-08T21:31:47.850Z,14.27
2018-04-08T21:34:20.655Z,12.47
2018-04-08T21:36:47.347Z,12.40
2018-04-08T21:39:14.078Z,12.33
2018-04-08T21:41:40.801Z,16.83
2018-04-08T21:44:20.438Z,15.73
2018-04-08T21:46:47.948Z,13.60
2018-04-08T21:49:14.638Z,15.13
2018-04-08T21:51:41.334Z,15.87
2018-04-08T21:54:08.272Z,17.43
2018-04-08T21:56:35.069Z,17.07
2018-04-08T21:59:01.690Z,17.77
2018-04-08T22:01:28.350Z,15.90
2018-04-08T22:03:56.036Z,18.90
2018-04-08T22:06:22.800Z,18.00
2018-04-08T22:08:49.401Z,17.27
2018-04-08T22:11:15.977Z,16.83
2018-04-08T22:13:46.650Z,16.23
2018-04-08T22:16:13.366Z,20.83
2018-04-08T22:18:40.086Z,19.80
2018-04-08T22:21:06.763Z,15.17
2018-04-08T22:23:37.879Z,17.10
2018-04-08T22:26:04.519Z,17.77
2018-04-08T22:28:31.086Z,20.87
2018-04-08T22:30:57.784Z,17.93
2018-04-08T22:33:24.718Z,17.57
2018-04-08T22:35:51.876Z,18.77
2018-04-08T22:38:18.529Z,14.73
2018-04-08T22:40:45.077Z,13.77
2018-04-08T22:43:15.538Z,16.07
2018-04-08T22:45:42.097Z,17.33
2018-04-08T22:48:08.694Z,17.83
2018-04-08T22:50:35.370Z,13.87
2018-04-08T22:53:02.390Z,18.10
2018-04-08T22:55:29.015Z,12.50
2018-04-08T22:57:55.644Z,12.73
2018-04-08T23:00:25.309Z,12.57
2018-04-08T23:02:52.877Z,12.47
2018-04-08T23:05:19.559Z,12.93
2018-04-08T23:07:46.260Z,12.77
2018-04-08T23:10:13.041Z,14.43
2018-04-08T23:12:43.177Z,14.20
2018-04-08T23:15:09.756Z,13.00
2018-04-08T23:17:36.465Z,10.60
2018-04-08T23:20:03.028Z,11.50
2018-04-08T23:22:37.177Z,15.23
2018-04-08T23:25:03.873Z,16.40
2018-04-08T23:27:30.487Z,14.30
2018-04-08T23:29:57.202Z,16.23
2018-04-08T23:32:23.861Z,15.40
2018-04-08T23:34:50.516Z,15.47
2018-04-08T23:37:17.222Z,13.73
2018-04-08T23:39:43.794Z,14.90
2018-04-08T23:42:10.428Z,15.50
2018-04-08T23:44:37.073Z,15.63
2018-04-08T23:47:03.799Z,14.07
2018-04-08T23:49:30.474Z,12.87
2018-04-08T23:51:57.139Z,16.27
2018-04-08T23:54:30.538Z,15.13
2018-04-08T23:56:57.261Z,12.90
2018-04-08T23:59:23.976Z,17.87
